Time;durP1;ratioP1;P1;durP2;ratioP2;P2;SDS_P1;SDS_P2;PMS_P1;PMS_P2;Temp;Humidity;BMP_temperature;BMP_pressure;BME280_temperature;BME280_humidity;BME280_pressure;Samples;Min_cycle;Max_cycle;Signal;HPM_P1;HPM_P2
2024/01/06 00:01:17;;;;;;;14.60;8.30;;;;;;;-2.14;88.35;99881.91;4993899;28;20648;-60
2024/01/06 00:03:46;;;;;;;14.53;8.43;;;;;;;-2.10;88.66;99883.75;4997971;28;20208;-59
2024/01/06 00:06:15;;;;;;;13.77;8.17;;;;;;;-2.09;87.97;99882.94;5000250;28;20223;-59
2024/01/06 00:08:43;;;;;;;14.67;8.30;;;;;;;-2.10;87.84;99871.16;4997087;28;20646;-62
2024/01/06 00:11:11;;;;;;;13.67;8.43;;;;;;;-2.06;87.91;99883.06;4990355;28;20214;-60
2024/01/06 00:13:39;;;;;;;14.97;8.17;;;;;;;-2.04;87.99;99889.00;4988582;28;20212;-58
2024/01/06 00:16:07;;;;;;;15.77;8.83;;;;;;;-2.05;87.47;99884.78;4993931;28;20546;-59
2024/01/06 00:18:35;;;;;;;14.70;9.23;;;;;;;-2.07;87.26;99888.91;4995983;28;20563;-68
2024/01/06 00:21:05;;;;;;;14.27;8.97;;;;;;;-2.10;86.84;99878.72;4993263;28;20294;-59
2024/01/06 00:23:32;;;;;;;12.87;8.27;;;;;;;-2.07;87.16;99885.53;4964510;28;1081049;-58
2024/01/06 00:26:01;;;;;;;14.10;9.13;;;;;;;-2.06;87.32;99893.16;4996256;28;20208;-62
2024/01/06 00:28:29;;;;;;;13.60;8.20;;;;;;;-2.05;87.33;99896.53;4993541;28;20232;-60
2024/01/06 00:30:57;;;;;;;13.10;8.10;;;;;;;-2.08;87.28;99899.81;4991031;28;20644;-60
2024/01/06 00:33:25;;;;;;;15.30;8.60;;;;;;;-2.11;86.84;99897.16;4993721;28;20215;-60
2024/01/06 00:35:55;;;;;;;12.67;7.90;;;;;;;-2.13;87.10;99891.22;5001755;28;20277;-62
2024/01/06 00:38:24;;;;;;;14.37;8.77;;;;;;;-2.13;87.24;99897.94;5002935;28;20674;-57
2024/01/06 00:40:52;;;;;;;13.63;8.83;;;;;;;-2.16;87.17;99901.19;4997828;28;20200;-58
2024/01/06 00:43:20;;;;;;;15.27;8.40;;;;;;;-2.13;87.49;99900.47;4999160;28;20280;-61
2024/01/06 00:45:48;;;;;;;13.13;8.07;;;;;;;-2.13;87.38;99891.22;4990626;28;20220;-60
2024/01/06 00:48:16;;;;;;;12.80;7.83;;;;;;;-2.13;87.94;99886.16;4985843;28;20215;-60
2024/01/06 00:50:44;;;;;;;12.23;7.93;;;;;;;-2.10;87.72;99888.81;4995063;28;20699;-64
2024/01/06 00:53:12;;;;;;;13.90;8.10;;;;;;;-2.08;87.63;99873.72;4994561;28;20211;-61
2024/01/06 00:55:41;;;;;;;12.40;7.77;;;;;;;-2.09;87.76;99872.00;4989199;28;20203;-62
2024/01/06 00:58:09;;;;;;;10.83;6.90;;;;;;;-2.11;87.71;99874.44;4994615;28;20212;-58
2024/01/06 01:00:37;;;;;;;12.77;8.23;;;;;;;-2.15;88.03;99872.63;4991562;28;20223;-61
2024/01/06 01:03:05;;;;;;;11.43;7.67;;;;;;;-2.17;88.64;99865.78;4992072;28;20254;-62
2024/01/06 01:05:33;;;;;;;15.73;8.20;;;;;;;-2.23;88.11;99863.91;4993528;28;20238;-58
2024/01/06 01:08:01;;;;;;;12.90;8.07;;;;;;;-2.29;89.00;99849.41;4998863;28;20208;-59
2024/01/06 01:10:29;;;;;;;11.40;7.27;;;;;;;-2.29;89.47;99846.03;4991327;28;20746;-59
2024/01/06 01:12:58;;;;;;;12.13;7.63;;;;;;;-2.31;89.54;99845.97;4992056;28;20219;-57
2024/01/06 01:15:26;;;;;;;13.00;7.97;;;;;;;-2.35;89.42;99843.28;4993425;28;20203;-58
2024/01/06 01:17:54;;;;;;;14.10;7.87;;;;;;;-2.39;89.50;99843.97;4993368;28;20203;-59
2024/01/06 01:20:22;;;;;;;9.90;6.10;;;;;;;-2.43;89.31;99855.59;4992253;28;20251;-59
2024/01/06 01:22:50;;;;;;;11.47;6.90;;;;;;;-2.44;89.63;99859.78;4992086;28;20319;-59
2024/01/06 01:25:18;;;;;;;12.33;6.87;;;;;;;-2.41;89.88;99871.66;4998147;28;20215;-59
2024/01/06 01:27:46;;;;;;;11.77;7.03;;;;;;;-2.41;89.65;99868.28;4999341;28;20639;-61
2024/01/06 01:30:16;;;;;;;10.77;6.87;;;;;;;-2.40;89.47;99868.31;4992503;28;20639;-60
2024/01/06 01:32:44;;;;;;;13.60;7.53;;;;;;;-2.37;90.05;99870.13;4987729;28;20983;-62
2024/01/06 01:35:12;;;;;;;10.33;6.20;;;;;;;-2.34;89.42;99867.72;4997838;28;20195;-57
2024/01/06 01:37:40;;;;;;;13.60;7.03;;;;;;;-2.34;88.67;99875.28;4990788;28;20212;-59
2024/01/06 01:40:09;;;;;;;14.17;7.30;;;;;;;-2.32;88.91;99879.59;5000811;28;20627;-57
2024/01/06 01:42:37;;;;;;;11.03;6.33;;;;;;;-2.34;88.40;99876.13;4994082;28;20207;-59
2024/01/06 01:45:06;;;;;;;10.63;6.77;;;;;;;-2.35;88.25;99868.53;4995361;28;20243;-58
2024/01/06 01:47:37;;;;;;;14.43;6.27;;;;;;;-2.36;87.70;99866.78;4987403;28;20448;-59
2024/01/06 01:50:06;;;;;;;7.90;6.33;;;;;;;-2.36;88.12;99869.31;4995516;28;20200;-57
2024/01/06 01:52:36;;;;;;;12.93;6.80;;;;;;;-2.37;87.79;99865.06;4990182;28;20204;-59
2024/01/06 01:55:05;;;;;;;10.53;6.40;;;;;;;-2.36;87.87;99862.59;4991516;28;20211;-60
2024/01/06 01:57:33;;;;;;;10.83;6.70;;;;;;;-2.36;87.69;99860.06;5000286;28;20246;-58
2024/01/06 02:00:02;;;;;;;12.67;6.53;;;;;;;-2.36;87.54;99862.59;4991393;28;20223;-60
2024/01/06 02:02:31;;;;;;;9.17;5.87;;;;;;;-2.33;87.86;99859.34;4998920;28;20212;-65
2024/01/06 02:05:00;;;;;;;10.40;7.03;;;;;;;-2.32;87.11;99854.34;4985074;28;20207;-59
2024/01/06 02:07:28;;;;;;;10.07;6.67;;;;;;;-2.33;86.90;99862.72;4989121;28;20664;-60
2024/01/06 02:09:56;;;;;;;10.23;6.50;;;;;;;-2.34;86.17;99855.09;5003541;28;20200;-59
2024/01/06 02:12:24;;;;;;;8.57;5.67;;;;;;;-2.34;86.55;99857.63;4993396;28;20209;-59
2024/01/06 02:14:52;;;;;;;10.37;6.13;;;;;;;-2.33;86.11;99859.34;4993254;28;20679;-57
2024/01/06 02:17:20;;;;;;;6.90;4.87;;;;;;;-2.38;86.12;99854.13;4998435;28;20211;-60
2024/01/06 02:19:48;;;;;;;7.93;5.23;;;;;;;-2.33;85.31;99857.66;4992983;28;20572;-58
2024/01/06 02:22:17;;;;;;;8.70;5.10;;;;;;;-2.33;85.02;99854.28;4984075;28;20244;-59
2024/01/06 02:24:45;;;;;;;8.33;5.13;;;;;;;-2.34;84.82;99847.53;4990392;28;20682;-60
2024/01/06 02:27:15;;;;;;;9.57;5.47;;;;;;;-2.35;85.54;99840.78;4993754;28;20516;-60
2024/01/06 02:29:42;;;;;;;6.50;4.50;;;;;;;-2.32;85.60;99836.69;4993703;28;20749;-61
2024/01/06 02:32:10;;;;;;;7.20;4.93;;;;;;;-2.33;84.68;99840.00;4991418;28;20208;-57
2024/01/06 02:34:39;;;;;;;7.47;4.70;;;;;;;-2.32;84.58;99835.81;5001847;28;20269;-60
2024/01/06 02:37:07;;;;;;;6.23;4.40;;;;;;;-2.35;84.58;99826.50;4991618;28;20251;-61
2024/01/06 02:39:36;;;;;;;6.40;4.70;;;;;;;-2.36;85.03;99833.97;4991094;28;20663;-58
2024/01/06 02:42:04;;;;;;;7.03;4.90;;;;;;;-2.37;84.83;99833.13;4991126;28;20211;-58
2024/01/06 02:44:32;;;;;;;7.97;4.60;;;;;;;-2.38;84.70;99843.19;4993456;28;20212;-61
2024/01/06 02:47:03;;;;;;;7.23;5.27;;;;;;;-2.36;84.85;99841.56;4997559;28;20224;-61
2024/01/06 02:49:31;;;;;;;7.93;5.13;;;;;;;-2.32;85.21;99840.84;4991961;28;20211;-57
2024/01/06 02:51:59;;;;;;;8.23;5.23;;;;;;;-2.31;84.61;99840.94;5001085;28;20208;-60
2024/01/06 02:54:27;;;;;;;6.80;4.80;;;;;;;-2.31;84.90;99840.06;5001096;28;20204;-58
2024/01/06 02:56:56;;;;;;;8.60;5.60;;;;;;;-2.33;85.02;99834.09;4994864;28;20254;-62
2024/01/06 02:59:24;;;;;;;7.77;5.37;;;;;;;-2.31;85.14;99827.47;4994332;28;20652;-58
2024/01/06 03:01:52;;;;;;;8.73;5.40;;;;;;;-2.26;85.11;99836.91;4994739;28;20733;-60
2024/01/06 03:04:20;;;;;;;8.53;5.63;;;;;;;-2.26;84.54;99833.53;4995066;28;20315;-59
2024/01/06 03:06:52;;;;;;;10.33;5.30;;;;;;;-2.29;84.57;99833.41;4989456;28;20686;-59
2024/01/06 03:09:20;;;;;;;10.17;6.10;;;;;;;-2.28;85.12;99833.47;4995639;28;20560;-59
2024/01/06 03:11:48;;;;;;;8.63;6.47;;;;;;;-2.27;84.89;99844.44;4998488;28;20577;-59
2024/01/06 03:14:17;;;;;;;9.30;6.03;;;;;;;-2.24;85.21;99842.03;4998231;28;20299;-58
2024/01/06 03:16:45;;;;;;;9.37;6.37;;;;;;;-2.25;84.92;99846.19;4992922;28;20215;-60
2024/01/06 03:19:13;;;;;;;10.13;6.60;;;;;;;-2.27;85.13;99842.75;4994102;28;20235;-58
2024/01/06 03:21:41;;;;;;;9.73;5.63;;;;;;;-2.27;85.10;99821.72;4996934;28;20222;-63
2024/01/06 03:24:09;;;;;;;12.43;6.33;;;;;;;-2.25;85.51;99825.13;4990491;28;20238;-58
2024/01/06 03:26:37;;;;;;;11.00;6.57;;;;;;;-2.23;85.75;99823.53;4996163;28;20219;-61
2024/01/06 03:29:06;;;;;;;13.80;6.37;;;;;;;-2.24;85.18;99826.88;5000915;28;20727;-59
2024/01/06 03:31:35;;;;;;;9.93;6.70;;;;;;;-2.28;85.77;99820.88;4993623;28;20266;-57
2024/01/06 03:34:03;;;;;;;11.03;7.17;;;;;;;-2.28;85.69;99825.06;4989927;28;20605;-60
2024/01/06 03:36:31;;;;;;;9.03;5.90;;;;;;;-2.32;86.00;99819.03;4995169;28;20674;-57
2024/01/06 03:38:59;;;;;;;11.27;7.10;;;;;;;-2.31;86.32;99814.84;4994686;28;20294;-59
2024/01/06 03:41:27;;;;;;;10.63;6.67;;;;;;;-2.33;86.41;99813.91;4996414;28;20304;-59
2024/01/06 03:43:55;;;;;;;10.33;5.97;;;;;;;-2.35;86.54;99823.09;4993888;28;20266;-60
2024/01/06 03:46:23;;;;;;;10.97;6.80;;;;;;;-2.37;86.47;99823.03;4996025;28;20223;-58
2024/01/06 03:48:53;;;;;;;12.43;7.10;;;;;;;-2.35;86.47;99820.59;5004306;28;20257;-59
2024/01/06 03:51:21;;;;;;;11.60;7.30;;;;;;;-2.34;86.88;99810.53;4992615;28;20605;-62
2024/01/06 03:53:50;;;;;;;13.17;7.20;;;;;;;-2.34;87.15;99810.53;4993233;28;20239;-60
2024/01/06 03:56:18;;;;;;;11.00;7.10;;;;;;;-2.31;87.56;99833.38;4996180;28;20578;-59
2024/01/06 03:58:46;;;;;;;9.87;6.60;;;;;;;-2.29;86.93;99833.41;5001285;28;20208;-60
2024/01/06 04:01:14;;;;;;;15.33;7.50;;;;;;;-2.30;86.92;99836.75;4987927;28;20204;-60
2024/01/06 04:03:42;;;;;;;10.60;7.03;;;;;;;-2.31;87.08;99829.97;4992132;28;20571;-58
2024/01/06 04:06:11;;;;;;;11.23;7.50;;;;;;;-2.31;87.47;99835.03;4994568;28;20200;-58
2024/01/06 04:08:41;;;;;;;12.03;7.03;;;;;;;-2.29;87.81;99839.31;4995459;28;20244;-60
2024/01/06 04:11:09;;;;;;;12.20;7.17;;;;;;;-2.25;87.87;99847.84;5001530;28;20294;-58
2024/01/06 04:13:37;;;;;;;11.53;7.00;;;;;;;-2.18;88.30;99844.75;4996524;28;20242;-58
2024/01/06 04:16:05;;;;;;;12.47;7.33;;;;;;;-2.12;87.55;99847.50;4993493;28;20215;-61
2024/01/06 04:18:33;;;;;;;12.30;7.30;;;;;;;-2.12;87.20;99844.13;4991748;28;20204;-58
2024/01/06 04:21:01;;;;;;;12.83;7.43;;;;;;;-2.14;87.37;99840.66;4995783;28;20211;-59
2024/01/06 04:23:30;;;;;;;10.43;7.00;;;;;;;-2.15;87.87;99837.28;4983328;28;20285;-58
2024/01/06 04:25:58;;;;;;;11.63;6.93;;;;;;;-2.17;88.20;99838.91;4994615;28;20768;-60
2024/01/06 04:28:26;;;;;;;12.73;7.73;;;;;;;-2.16;88.12;99829.69;4995227;28;20300;-60
2024/01/06 04:30:54;;;;;;;11.30;8.20;;;;;;;-2.16;88.88;99832.19;4995518;28;20232;-60
2024/01/06 04:33:22;;;;;;;12.40;8.23;;;;;;;-2.14;88.93;99836.47;4994785;28;20223;-58
2024/01/06 04:35:51;;;;;;;12.43;8.13;;;;;;;-2.13;89.11;99840.75;4994022;28;20204;-59
2024/01/06 04:38:18;;;;;;;12.63;7.43;;;;;;;-2.09;89.04;99847.63;4996073;28;20558;-60
2024/01/06 04:40:48;;;;;;;12.90;8.37;;;;;;;-2.07;89.46;99851.03;4993627;28;20211;-59
2024/01/06 04:43:16;;;;;;;11.13;7.20;;;;;;;-2.06;88.69;99854.41;4992046;28;20220;-59
2024/01/06 04:45:44;;;;;;;12.50;7.43;;;;;;;-2.06;88.88;99849.38;5003919;28;20231;-64
2024/01/06 04:48:12;;;;;;;11.87;8.30;;;;;;;-2.06;88.35;99847.72;4986735;28;20679;-60
2024/01/06 04:50:40;;;;;;;12.20;7.57;;;;;;;-2.06;88.31;99850.25;4991161;28;20209;-57
2024/01/06 04:53:08;;;;;;;16.20;9.00;;;;;;;-2.05;88.75;99854.50;4997940;28;20636;-60
2024/01/06 04:55:36;;;;;;;13.17;8.10;;;;;;;-2.06;88.36;99862.00;4997078;28;20674;-57
2024/01/06 04:58:06;;;;;;;14.27;7.43;;;;;;;-2.07;88.42;99856.09;4996727;28;20632;-58
2024/01/06 05:00:35;;;;;;;12.13;8.10;;;;;;;-2.07;88.52;99860.28;4994697;28;20239;-59
2024/01/06 05:03:05;;;;;;;13.37;8.37;;;;;;;-2.05;88.58;99854.50;4993169;28;20200;-58
2024/01/06 05:05:33;;;;;;;13.20;7.23;;;;;;;-2.04;88.30;99851.16;4988856;28;20543;-57
2024/01/06 05:08:01;;;;;;;13.63;7.70;;;;;;;-2.05;88.24;99843.53;4994204;28;20220;-58
2024/01/06 05:10:29;;;;;;;14.37;7.43;;;;;;;-2.05;88.49;99848.59;4989806;28;20212;-59
2024/01/06 05:12:57;;;;;;;9.93;7.20;;;;;;;-2.07;88.23;99840.09;4995344;28;20222;-57
2024/01/06 05:15:26;;;;;;;10.67;7.33;;;;;;;-2.07;88.70;99851.03;4991788;28;20208;-58
2024/01/06 05:17:54;;;;;;;10.37;6.77;;;;;;;-2.09;88.72;99851.81;4995840;28;20662;-61
2024/01/06 05:20:22;;;;;;;11.40;7.37;;;;;;;-2.11;88.72;99859.31;4991896;28;20286;-57
2024/01/06 05:22:50;;;;;;;10.90;6.90;;;;;;;-2.13;88.38;99860.06;4994046;28;20282;-58
2024/01/06 05:25:19;;;;;;;11.77;6.97;;;;;;;-2.16;88.56;99855.78;4987251;28;20284;-59
2024/01/06 05:27:46;;;;;;;10.30;6.47;;;;;;;-2.21;88.65;99857.25;4997400;28;20224;-61
2024/01/06 05:30:15;;;;;;;12.93;7.13;;;;;;;-2.23;88.36;99858.88;4993209;28;20597;-60
2024/01/06 05:32:44;;;;;;;10.00;6.37;;;;;;;-2.24;89.36;99857.16;4986893;28;20208;-59
2024/01/06 05:35:12;;;;;;;13.67;7.47;;;;;;;-2.24;88.47;99857.16;4988611;28;20200;-60
2024/01/06 05:37:41;;;;;;;10.13;6.40;;;;;;;-2.23;88.63;99858.88;4991496;28;20207;-58
2024/01/06 05:40:11;;;;;;;11.67;7.17;;;;;;;-2.26;88.44;99866.31;4990939;28;20722;-58
2024/01/06 05:42:39;;;;;;;9.20;6.30;;;;;;;-2.27;88.90;99873.03;4992586;28;20679;-59
2024/01/06 05:45:07;;;;;;;11.80;7.27;;;;;;;-2.27;88.52;99872.19;4991751;28;20578;-58
2024/01/06 05:47:36;;;;;;;9.60;6.70;;;;;;;-2.28;88.76;99871.31;4995710;28;20270;-58
2024/01/06 05:50:09;;;;;;;11.23;7.47;;;;;;;-2.30;88.48;99861.97;4991391;28;20204;-55
2024/01/06 05:52:37;;;;;;;11.43;7.10;;;;;;;-2.29;89.10;99873.78;4991727;28;20258;-61
2024/01/06 05:55:05;;;;;;;12.63;7.37;;;;;;;-2.32;88.18;99864.44;4992552;28;20291;-66
2024/01/06 05:57:33;;;;;;;14.23;7.80;;;;;;;-2.35;88.50;99861.81;4993466;28;20198;-58
2024/01/06 06:00:02;;;;;;;12.03;7.27;;;;;;;-2.34;88.71;99866.03;4990150;28;20208;-58
2024/01/06 06:02:31;;;;;;;12.43;7.70;;;;;;;-2.30;88.96;99869.53;4990565;28;20298;-57
2024/01/06 06:04:59;;;;;;;11.77;8.00;;;;;;;-2.26;89.29;99866.31;5000571;28;20556;-57
2024/01/06 06:07:28;;;;;;;10.90;7.37;;;;;;;-2.26;88.69;99874.75;4994568;28;20219;-61
2024/01/06 06:09:56;;;;;;;13.00;7.60;;;;;;;-2.24;88.65;99882.41;4989465;28;20290;-59
2024/01/06 06:12:24;;;;;;;12.57;7.67;;;;;;;-2.20;88.77;99886.75;4990450;28;20204;-59
2024/01/06 06:14:52;;;;;;;11.07;7.23;;;;;;;-2.21;88.58;99900.16;4991362;28;20211;-58
2024/01/06 06:17:20;;;;;;;11.97;7.80;;;;;;;-2.19;88.83;99893.50;4988811;28;20282;-59
2024/01/06 06:19:48;;;;;;;12.37;7.80;;;;;;;-2.17;88.70;99899.50;4997991;28;20645;-58
2024/01/06 06:22:16;;;;;;;12.03;7.37;;;;;;;-2.19;88.47;99914.56;4992752;28;20228;-57
2024/01/06 06:24:46;;;;;;;14.37;8.20;;;;;;;-2.20;88.23;99912.00;4996096;28;20216;-59
2024/01/06 06:27:13;;;;;;;11.97;8.60;;;;;;;-2.21;88.16;99920.34;4997779;28;20245;-58
2024/01/06 06:29:41;;;;;;;13.43;8.30;;;;;;;-2.22;88.00;99906.00;4995328;28;20236;-61
2024/01/06 06:32:09;;;;;;;12.23;8.53;;;;;;;-2.22;88.79;99906.00;4997153;28;20204;-59
2024/01/06 06:34:37;;;;;;;14.00;8.97;;;;;;;-2.19;88.65;99913.69;4996938;28;20299;-58
2024/01/06 06:37:05;;;;;;;12.83;8.03;;;;;;;-2.21;88.57;99906.09;5003718;28;20305;-58
2024/01/06 06:39:35;;;;;;;14.40;8.53;;;;;;;-2.21;88.32;99908.59;4994064;28;20220;-58
2024/01/06 06:42:05;;;;;;;11.97;8.00;;;;;;;-2.19;88.32;99916.22;4993668;28;20204;-59
2024/01/06 06:44:33;;;;;;;16.37;9.87;;;;;;;-2.19;88.04;99927.16;4997308;28;20211;-59
2024/01/06 06:47:01;;;;;;;13.07;8.57;;;;;;;-2.23;87.85;99929.53;4998393;28;20208;-58
2024/01/06 06:49:28;;;;;;;16.17;9.23;;;;;;;-2.23;88.36;99940.47;4993935;28;20679;-60
2024/01/06 06:51:56;;;;;;;14.60;9.00;;;;;;;-2.23;88.54;99950.56;4994477;28;20214;-60
2024/01/06 06:54:24;;;;;;;12.87;8.33;;;;;;;-2.21;88.08;99954.03;4995711;28;20215;-58
2024/01/06 06:56:52;;;;;;;12.47;8.17;;;;;;;-2.20;87.93;99949.84;4995520;28;20208;-62
2024/01/06 06:59:21;;;;;;;12.53;8.97;;;;;;;-2.19;88.00;99944.84;4994509;28;20209;-63
2024/01/06 07:01:50;;;;;;;14.33;8.87;;;;;;;-2.15;88.07;99943.28;5003460;28;20208;-61
2024/01/06 07:04:18;;;;;;;12.57;8.60;;;;;;;-2.14;88.04;99946.69;4995375;28;20219;-58
2024/01/06 07:06:46;;;;;;;12.80;8.50;;;;;;;-2.18;87.25;99953.25;4992407;28;20615;-58
2024/01/06 07:09:14;;;;;;;12.10;8.07;;;;;;;-2.19;87.63;99959.97;5002406;28;20224;-57
2024/01/06 07:11:41;;;;;;;15.67;8.77;;;;;;;-2.19;87.13;99954.06;4999627;28;20291;-58
2024/01/06 07:14:09;;;;;;;14.30;9.00;;;;;;;-2.22;87.14;99942.19;4996346;28;20659;-59
2024/01/06 07:16:39;;;;;;;14.43;9.00;;;;;;;-2.22;87.22;99946.38;5003021;28;20223;-63
2024/01/06 07:19:07;;;;;;;15.97;9.30;;;;;;;-2.22;87.33;99936.28;4995344;28;20211;-59
2024/01/06 07:21:35;;;;;;;13.30;8.60;;;;;;;-2.22;87.10;99929.56;4998788;28;20627;-59
2024/01/06 07:24:03;;;;;;;14.27;9.27;;;;;;;-2.20;87.00;99933.03;4995684;28;20717;-59
2024/01/06 07:26:31;;;;;;;13.37;9.13;;;;;;;-2.23;87.12;99921.97;4995352;28;20214;-59
2024/01/06 07:28:59;;;;;;;13.13;8.43;;;;;;;-2.25;86.51;99928.59;4996917;28;20219;-61
2024/01/06 07:31:27;;;;;;;13.93;9.17;;;;;;;-2.25;87.33;99931.13;4998909;28;20643;-57
2024/01/06 07:33:57;;;;;;;13.03;8.17;;;;;;;-2.25;87.05;99942.06;4996110;28;20211;-58
2024/01/06 07:36:25;;;;;;;16.03;9.60;;;;;;;-2.26;86.96;99947.06;4992193;28;20204;-58
2024/01/06 07:38:53;;;;;;;13.63;8.47;;;;;;;-2.25;87.36;99947.13;4989807;28;20200;-61
2024/01/06 07:41:22;;;;;;;13.87;8.50;;;;;;;-2.20;86.64;99953.22;4984748;28;20208;-57
2024/01/06 07:43:50;;;;;;;16.63;9.10;;;;;;;-2.16;86.63;99964.28;5000976;28;20208;-59
2024/01/06 07:46:18;;;;;;;15.20;9.60;;;;;;;-2.11;87.11;99974.56;4997431;28;20791;-57
2024/01/06 07:48:47;;;;;;;13.43;8.10;;;;;;;-2.06;87.16;99985.69;4992186;28;20706;-57
2024/01/06 07:51:17;;;;;;;15.17;8.03;;;;;;;-2.04;86.58;99977.38;4999676;28;20207;-58
2024/01/06 07:53:45;;;;;;;13.40;8.77;;;;;;;-2.00;86.62;99979.19;4993558;28;20204;-58
2024/01/06 07:56:13;;;;;;;11.23;7.80;;;;;;;-1.98;86.04;99984.31;4996194;28;20291;-56
2024/01/06 07:58:40;;;;;;;13.50;8.97;;;;;;;-2.00;85.71;99991.81;4993282;28;20212;-58
2024/01/06 08:01:08;;;;;;;15.70;8.67;;;;;;;-2.01;85.86;99986.72;4991871;28;20203;-60
2024/01/06 08:03:37;;;;;;;12.83;8.67;;;;;;;-1.99;85.76;99983.47;4993361;28;20688;-57
2024/01/06 08:06:06;;;;;;;13.77;9.13;;;;;;;-2.04;85.57;99982.41;4987648;28;20317;-59
2024/01/06 08:08:35;;;;;;;14.13;8.80;;;;;;;-2.05;86.21;99987.41;4999915;28;20203;-58
2024/01/06 08:11:03;;;;;;;12.10;8.23;;;;;;;-2.05;85.87;99987.41;4989261;28;20204;-59
2024/01/06 08:13:31;;;;;;;13.30;8.93;;;;;;;-2.04;85.67;99991.66;5004150;28;20701;-59
2024/01/06 08:15:59;;;;;;;15.07;9.67;;;;;;;-2.07;85.47;99977.25;4998946;28;20208;-59
2024/01/06 08:18:27;;;;;;;15.30;9.20;;;;;;;-2.05;85.97;99989.94;4993227;28;20200;-63
2024/01/06 08:20:55;;;;;;;12.30;8.40;;;;;;;-2.03;85.51;99988.31;4992482;28;20200;-59
2024/01/06 08:23:23;;;;;;;14.07;8.50;;;;;;;-2.02;86.01;99990.94;4991259;28;20250;-58
2024/01/06 08:25:52;;;;;;;16.77;8.77;;;;;;;-2.01;86.14;99992.63;5001174;28;20303;-59
2024/01/06 08:28:23;;;;;;;11.90;8.13;;;;;;;-2.02;85.49;99985.88;4997461;28;20197;-60
2024/01/06 08:30:51;;;;;;;18.67;8.87;;;;;;;-2.01;86.14;99992.63;4990995;28;20267;-63
2024/01/06 08:33:19;;;;;;;16.40;9.33;;;;;;;-2.02;85.51;99995.13;4993631;28;20215;-61
2024/01/06 08:35:48;;;;;;;14.47;8.60;;;;;;;-2.02;85.68;100011.13;4988840;28;20300;-62
2024/01/06 08:38:16;;;;;;;14.77;9.00;;;;;;;-2.06;85.63;100010.91;4989460;28;20652;-61
2024/01/06 08:40:47;;;;;;;13.47;9.03;;;;;;;-2.06;85.48;100015.97;4994576;28;20286;-61
2024/01/06 08:43:17;;;;;;;13.50;9.40;;;;;;;-2.11;85.55;100015.81;4995477;28;20579;-63
2024/01/06 08:45:45;;;;;;;13.23;8.03;;;;;;;-2.11;85.81;100022.50;4992326;28;20244;-60
2024/01/06 08:48:13;;;;;;;13.47;8.27;;;;;;;-2.09;86.08;100021.78;4992011;28;20697;-62
2024/01/06 08:50:41;;;;;;;13.03;8.17;;;;;;;-2.06;85.78;100018.50;4989103;28;20278;-65
2024/01/06 08:53:09;;;;;;;16.13;9.33;;;;;;;-2.08;86.04;100026.03;5000258;28;20669;-61
2024/01/06 08:55:37;;;;;;;12.83;7.93;;;;;;;-2.08;85.29;100036.13;4991469;28;20254;-60
2024/01/06 08:58:06;;;;;;;13.87;8.17;;;;;;;-2.09;85.48;100029.34;4983039;28;20204;-62
2024/01/06 09:00:35;;;;;;;10.93;7.57;;;;;;;-2.10;85.63;100035.22;4991392;28;20204;-57
2024/01/06 09:03:03;;;;;;;11.67;7.77;;;;;;;-2.09;85.82;100034.41;4986492;28;20215;-50
2024/01/06 09:05:31;;;;;;;11.83;7.50;;;;;;;-2.08;85.62;100036.13;4992845;28;20211;-53
2024/01/06 09:07:59;;;;;;;11.87;7.13;;;;;;;-2.07;85.40;100042.88;4993624;28;20207;-51
2024/01/06 09:10:28;;;;;;;13.63;9.17;;;;;;;-2.05;85.68;100046.34;4989857;28;20690;-53
2024/01/06 09:12:57;;;;;;;12.50;8.13;;;;;;;-2.03;85.46;100044.72;4993992;28;20262;-52
2024/01/06 09:15:25;;;;;;;10.73;7.60;;;;;;;-2.00;85.55;100049.88;4997074;28;20631;-50
2024/01/06 09:17:54;;;;;;;11.23;7.43;;;;;;;-1.99;84.99;100056.69;4992358;28;20299;-51
2024/01/06 09:20:23;;;;;;;13.43;8.07;;;;;;;-2.03;85.16;100047.25;4989514;28;20207;-60
2024/01/06 09:22:51;;;;;;;11.40;7.60;;;;;;;-2.12;84.74;100039.31;4988250;28;20245;-60
2024/01/06 09:25:19;;;;;;;11.00;7.30;;;;;;;-2.14;85.26;100045.09;4990540;28;20295;-65
2024/01/06 09:27:46;;;;;;;9.80;6.47;;;;;;;-2.13;86.21;100046.84;4992887;28;20208;-61
2024/01/06 09:30:15;;;;;;;10.83;7.63;;;;;;;-2.09;85.95;100041.97;4986965;28;20322;-59
2024/01/06 09:32:43;;;;;;;10.80;6.77;;;;;;;-2.07;85.99;100044.53;4989821;28;20251;-62
2024/01/06 09:35:12;;;;;;;12.00;7.33;;;;;;;-2.10;85.29;100042.78;4990419;28;20196;-61
2024/01/06 09:37:40;;;;;;;10.13;6.43;;;;;;;-2.11;84.97;100046.09;4987768;28;20735;-62
2024/01/06 09:40:12;;;;;;;11.00;6.30;;;;;;;-2.16;84.92;100040.00;4990311;28;20686;-61
2024/01/06 09:42:40;;;;;;;10.20;6.30;;;;;;;-2.19;86.04;100047.47;4991714;28;20208;-64
2024/01/06 09:45:09;;;;;;;9.30;6.60;;;;;;;-2.17;85.50;100040.81;4990565;28;20210;-62
2024/01/06 09:47:41;;;;;;;10.23;6.87;;;;;;;-2.15;86.07;100034.16;4991052;28;20223;-63
2024/01/06 09:50:10;;;;;;;10.93;6.83;;;;;;;-2.09;86.11;100049.56;4989968;28;20239;-59
2024/01/06 09:52:41;;;;;;;9.43;6.30;;;;;;;-2.08;85.66;100041.16;4991309;28;20575;-63
2024/01/06 09:55:12;;;;;;;12.60;7.17;;;;;;;-2.07;85.63;100045.41;4991154;28;20236;-61
2024/01/06 09:57:40;;;;;;;9.80;6.47;;;;;;;-2.07;85.41;100050.44;4988554;28;20207;-62
2024/01/06 10:00:09;;;;;;;11.53;6.70;;;;;;;-2.08;85.95;100046.22;4994382;28;20287;-60
2024/01/06 10:02:37;;;;;;;10.53;6.60;;;;;;;-2.08;86.27;100046.22;4993047;28;20215;-62
2024/01/06 10:05:06;;;;;;;10.60;6.43;;;;;;;-2.09;86.31;100041.97;4995281;28;20262;-61
2024/01/06 10:07:34;;;;;;;11.17;6.90;;;;;;;-2.10;86.60;100047.84;4994940;28;20679;-62
2024/01/06 10:10:03;;;;;;;11.83;6.63;;;;;;;-2.07;87.14;100054.66;4994423;28;20686;-63
2024/01/06 10:12:31;;;;;;;10.83;7.07;;;;;;;-2.05;86.90;100051.38;4995776;28;20624;-62
2024/01/06 10:15:00;;;;;;;9.50;5.93;;;;;;;-2.10;86.58;100050.38;4995560;28;20536;-62
2024/01/06 10:17:28;;;;;;;11.20;6.90;;;;;;;-2.11;87.30;100057.84;4992611;28;20631;-62
2024/01/06 10:19:56;;;;;;;11.33;7.00;;;;;;;-2.13;87.24;100054.44;4992422;28;20250;-61
2024/01/06 10:22:25;;;;;;;11.80;7.47;;;;;;;-2.13;87.84;100055.28;4990186;28;20318;-52
2024/01/06 10:24:53;;;;;;;9.47;6.67;;;;;;;-2.13;88.08;100057.81;4994636;28;20232;-54
2024/01/06 10:27:22;;;;;;;8.47;6.00;;;;;;;-2.11;88.57;100051.13;4988386;28;20216;-58
2024/01/06 10:29:51;;;;;;;8.63;6.23;;;;;;;-2.10;88.38;100059.56;5000179;28;20208;-60
2024/01/06 10:32:18;;;;;;;11.67;7.40;;;;;;;-2.09;88.57;100048.69;5001144;28;20204;-60
2024/01/06 10:34:47;;;;;;;12.00;6.80;;;;;;;-2.05;88.56;100060.63;4991448;28;20267;-61
2024/01/06 10:37:18;;;;;;;12.00;6.43;;;;;;;-2.03;88.65;100056.47;4997192;28;20204;-59
2024/01/06 10:39:46;;;;;;;12.10;6.70;;;;;;;-2.03;88.81;100059.88;4992656;28;20741;-58
2024/01/06 10:42:15;;;;;;;10.00;6.53;;;;;;;-2.00;88.78;100057.47;4990193;28;20298;-60
2024/01/06 10:44:46;;;;;;;10.53;6.23;;;;;;;-2.01;88.21;100057.41;4994956;28;20215;-58
2024/01/06 10:47:16;;;;;;;9.87;6.93;;;;;;;-2.03;88.40;100062.38;4997013;28;20208;-57
2024/01/06 10:49:45;;;;;;;10.17;6.37;;;;;;;-2.01;88.91;100065.84;4996628;28;20607;-55
2024/01/06 10:52:14;;;;;;;9.67;6.67;;;;;;;-2.01;88.51;100058.28;4995118;28;20587;-55
2024/01/06 10:54:43;;;;;;;9.30;6.33;;;;;;;-2.02;88.51;100059.09;5001954;28;20290;-56
2024/01/06 10:57:12;;;;;;;9.13;6.17;;;;;;;-2.00;88.57;100062.50;5004496;28;20281;-53
2024/01/06 10:59:40;;;;;;;9.90;6.17;;;;;;;-2.01;88.52;100060.81;5003940;28;20573;-60
2024/01/06 11:02:12;;;;;;;11.93;6.27;;;;;;;-1.99;89.17;100054.16;4983732;28;20726;-58
2024/01/06 11:04:41;;;;;;;9.77;6.60;;;;;;;-1.97;89.33;100055.06;4980554;28;20329;-58
2024/01/06 11:07:10;;;;;;;9.70;5.93;;;;;;;-2.00;88.85;100049.03;4991870;28;20258;-61
2024/01/06 11:09:42;;;;;;;10.03;5.90;;;;;;;-2.00;89.31;100044.84;4981719;28;20656;-62
2024/01/06 11:12:10;;;;;;;11.27;7.20;;;;;;;-1.96;89.86;100048.34;4994230;28;20595;-58
2024/01/06 11:14:38;;;;;;;10.07;6.27;;;;;;;-1.98;89.77;100053.34;4994301;28;20204;-59
2024/01/06 11:17:06;;;;;;;13.30;7.43;;;;;;;-1.95;90.29;100057.66;4990838;28;20200;-61
2024/01/06 11:19:47;;;;;;;12.47;7.13;;;;;;;-1.92;89.81;100050.19;4992722;28;20628;-61
2024/01/06 11:22:24;;;;;;;10.33;6.40;;;;;;;-1.91;89.96;100048.50;4990959;28;20228;-60
2024/01/06 11:24:55;;;;;;;10.43;7.10;;;;;;;-1.90;89.68;100055.31;4993243;28;20207;-57
2024/01/06 11:27:26;;;;;;;11.67;6.57;;;;;;;-1.88;89.38;100049.50;4988916;28;20216;-56
2024/01/06 11:29:55;;;;;;;10.43;6.70;;;;;;;-1.84;89.67;100053.00;4989743;28;20208;-66